Time;durP1;ratioP1;P1;durP2;ratioP2;P2;SDS_P1;SDS_P2;PMS_P1;PMS_P2;Temp;Humidity;BMP_temperature;BMP_pressure;BME280_temperature;BME280_humidity;BME280_pressure;Samples;Min_cycle;Max_cycle;Signal;HPM_P1;HPM_P2
2022/04/26 03:36:10;;;;;;;28.00;20.00;;;;;;;6.75;87.89;98419.77;220237;1275;22533;-73
2022/04/26 03:41:14;;;;;;;25.50;18.30;;;;;;;6.77;87.74;98423.88;220382;1277;25392;-74
2022/04/26 03:46:18;;;;;;;27.80;19.40;;;;;;;6.77;87.85;98430.21;220454;1274;25895;-73
2022/04/26 03:51:26;;;;;;;27.00;19.00;;;;;;;6.77;88.16;98434.57;220499;1274;22547;-73
2022/04/26 03:56:28;;;;;;;28.20;19.40;;;;;;;6.81;88.19;98438.92;220392;1274;22589;-72
2022/04/26 04:01:47;;;;;;;30.10;19.90;;;;;;;6.87;88.21;98440.03;220562;1274;23220;-73
2022/04/26 04:07:09;;;;;;;28.60;18.90;;;;;;;6.91;88.11;98445.92;220499;1275;22642;-74
2022/04/26 04:12:12;;;;;;;27.60;18.10;;;;;;;6.91;87.70;98451.09;220434;1275;25255;-74
2022/04/26 04:17:15;;;;;;;26.00;18.90;;;;;;;6.95;87.92;98457.80;220653;1274;25413;-73
2022/04/26 04:22:17;;;;;;;24.60;17.60;;;;;;;6.94;87.85;98463.48;220628;1275;23206;-73
2022/04/26 04:27:19;;;;;;;23.90;17.50;;;;;;;6.95;87.77;98472.11;220666;1274;22651;-73
2022/04/26 04:32:22;;;;;;;28.40;18.30;;;;;;;6.95;87.76;98475.79;220661;1274;24389;-73
2022/04/26 04:37:24;;;;;;;32.60;19.90;;;;;;;6.95;87.33;98474.98;220643;1274;22544;-73
2022/04/26 04:42:27;;;;;;;28.90;18.00;;;;;;;6.98;87.69;98482.86;220640;1274;22567;-74
2022/04/26 04:47:30;;;;;;;27.50;18.20;;;;;;;7.02;87.42;98485.62;220648;1274;22738;-73
2022/04/26 04:52:33;;;;;;;26.30;18.00;;;;;;;7.07;87.63;98489.55;220480;1274;23097;-73
2022/04/26 04:57:36;;;;;;;26.30;17.60;;;;;;;7.10;87.72;98487.71;220840;1274;22714;-73
2022/04/26 05:02:55;;;;;;;28.30;19.40;;;;;;;7.19;87.66;98493.19;220789;1274;25232;-73
2022/04/26 05:08:01;;;;;;;;;;;;;;;7.26;87.66;98501.51;220718;1274;22581;-73
2022/04/26 05:13:04;;;;;;;27.40;18.50;;;;;;;7.31;87.22;98508.05;220479;1274;23130;-74
2022/04/26 05:18:12;;;;;;;32.00;20.00;;;;;;;7.36;87.19;98513.35;220492;1274;22632;-73
2022/04/26 05:28:40;;;;;;;29.80;19.00;;;;;;;7.48;87.12;98519.53;220687;1274;25379;-72
2022/04/26 05:33:51;;;;;;;29.40;20.10;;;;;;;7.62;87.35;98520.01;220676;1274;25375;-73
2022/04/26 05:39:11;;;;;;;29.10;19.70;;;;;;;7.73;87.06;98527.31;220566;1274;23253;-74
2022/04/26 05:44:18;;;;;;;27.90;19.40;;;;;;;7.80;86.45;98533.08;220709;1275;25251;-73
2022/04/26 05:49:22;;;;;;;27.10;18.70;;;;;;;7.88;86.56;98535.64;221161;1274;25251;-72
2022/04/26 05:54:27;;;;;;;27.90;19.10;;;;;;;7.87;85.77;98535.81;220779;1274;25422;-73
2022/04/26 05:59:34;;;;;;;27.10;19.00;;;;;;;7.86;85.72;98543.45;221228;1274;22587;-71
2022/04/26 06:04:50;;;;;;;31.20;20.50;;;;;;;7.97;86.22;98544.71;220958;1273;22559;-72
2022/04/26 06:10:11;;;;;;;29.80;19.70;;;;;;;8.15;86.13;98550.66;220976;1273;23120;-71
2022/04/26 06:15:15;;;;;;;28.10;19.10;;;;;;;8.24;85.50;98549.60;220801;1274;26537;-71
2022/04/26 06:20:20;;;;;;;25.10;18.00;;;;;;;8.24;84.90;98546.98;220788;1274;24128;-70
2022/04/26 06:25:27;;;;;;;27.20;17.90;;;;;;;8.32;84.91;98548.15;220998;1273;25437;-71
2022/04/26 06:30:36;;;;;;;26.50;19.00;;;;;;;8.43;84.99;98550.95;220843;1274;25244;-71
2022/04/26 06:35:44;;;;;;;24.00;17.70;;;;;;;8.58;84.67;98550.05;220683;1274;22583;-71
2022/04/26 06:40:47;;;;;;;26.30;18.60;;;;;;;8.71;84.40;98547.48;220584;1274;26179;-72
2022/04/26 06:45:50;;;;;;;25.60;19.10;;;;;;;8.92;84.15;98548.02;220798;1274;25527;-72
2022/04/26 06:50:55;;;;;;;28.20;19.30;;;;;;;9.11;83.88;98551.04;220344;1275;22622;-72
2022/04/26 06:56:10;;;;;;;30.70;20.00;;;;;;;9.23;83.44;98552.35;220597;1274;22551;-72
2022/04/26 07:01:27;;;;;;;26.60;18.90;;;;;;;9.41;83.25;98559.69;220507;1274;23733;-71
2022/04/26 07:06:42;;;;;;;27.40;18.70;;;;;;;9.50;82.53;98561.94;220944;1273;25399;-72
2022/04/26 07:11:57;;;;;;;24.40;18.20;;;;;;;9.60;82.43;98567.16;221279;1274;24414;-72
2022/04/26 07:17:29;;;;;;;26.40;17.10;;;;;;;9.71;81.98;98570.44;220785;1274;22758;-72
2022/04/26 07:22:39;;;;;;;24.60;16.00;;;;;;;9.71;81.42;98577.83;220692;1274;26572;-73
2022/04/26 07:27:51;;;;;;;21.50;15.40;;;;;;;9.68;81.06;98579.26;220673;1274;23494;-72
2022/04/26 07:38:24;;;;;;;18.50;14.40;;;;;;;9.92;80.75;98583.92;220696;1273;24366;-72
2022/04/26 07:43:34;;;;;;;20.50;14.40;;;;;;;10.02;80.46;98591.86;221006;1274;22647;-73
2022/04/26 07:48:39;;;;;;;19.30;13.40;;;;;;;10.18;80.03;98591.61;220985;1273;25481;-72
2022/04/26 07:53:41;;;;;;;20.30;14.40;;;;;;;10.25;79.63;98596.04;220838;1274;24303;-74
2022/04/26 07:58:43;;;;;;;17.20;14.40;;;;;;;10.38;79.44;98598.29;220812;1274;23208;-74
2022/04/26 08:03:46;;;;;;;15.70;12.20;;;;;;;10.59;79.42;98605.85;221109;1273;22565;-73
2022/04/26 08:08:56;;;;;;;19.20;14.10;;;;;;;10.69;78.49;98609.33;220789;1274;25243;-73
2022/04/26 08:14:20;;;;;;;16.60;13.90;;;;;;;10.74;77.75;98615.94;220891;1273;24303;-72
2022/04/26 08:19:26;;;;;;;17.10;13.20;;;;;;;10.85;77.89;98618.71;220756;1274;22562;-71
2022/04/26 08:30:05;;;;;;;16.80;12.60;;;;;;;10.91;77.06;98632.23;220926;1274;25257;-73
2022/04/26 08:35:10;;;;;;;15.30;11.40;;;;;;;10.98;76.80;98634.58;221161;1274;22556;-73
2022/04/26 08:40:13;;;;;;;14.90;12.10;;;;;;;11.16;76.45;98637.54;221063;1273;22632;-73
2022/04/26 08:45:20;;;;;;;15.10;11.80;;;;;;;11.27;76.03;98642.17;220853;1273;22785;-72
2022/04/26 08:56:09;;;;;;;14.40;12.20;;;;;;;11.16;75.02;98652.71;220667;1273;22511;-72
2022/04/26 09:01:29;;;;;;;15.60;10.90;;;;;;;11.17;75.01;98652.16;220992;1274;22566;-72
2022/04/26 09:06:51;;;;;;;14.40;11.20;;;;;;;11.19;74.94;98650.15;220819;1274;23723;-70
2022/04/26 09:12:00;;;;;;;14.60;11.40;;;;;;;11.25;74.80;98654.02;220647;1273;25397;-72
2022/04/26 09:17:09;;;;;;;15.20;11.80;;;;;;;11.27;74.50;98656.66;220757;1273;25245;-71
2022/04/26 09:22:18;;;;;;;16.50;12.50;;;;;;;11.19;73.98;98664.71;221033;1273;22541;-72
2022/04/26 09:27:22;;;;;;;16.80;12.20;;;;;;;11.10;74.22;98665.58;220873;1273;25483;-73
2022/04/26 09:32:24;;;;;;;16.00;12.70;;;;;;;11.03;73.90;98667.04;220835;1274;22604;-73
2022/04/26 09:37:29;;;;;;;16.70;12.70;;;;;;;10.96;73.98;98669.52;221074;1274;22544;-73
2022/04/26 09:42:33;;;;;;;18.60;14.30;;;;;;;10.95;73.89;98669.58;220998;1273;24963;-72
2022/04/26 09:47:45;;;;;;;15.90;10.80;;;;;;;11.00;73.94;98662.42;220803;1274;25323;-72
2022/04/26 09:52:47;;;;;;;15.60;11.80;;;;;;;11.21;74.13;98666.35;220679;1274;23917;-72
2022/04/26 09:57:51;;;;;;;17.30;12.00;;;;;;;11.36;73.44;98666.69;220991;1273;25500;-73
2022/04/26 10:02:58;;;;;;;15.80;12.40;;;;;;;11.41;73.30;98665.80;220901;1274;25366;-72
2022/04/26 10:08:04;;;;;;;14.20;11.80;;;;;;;11.42;73.05;98664.20;220759;1276;25478;-74
2022/04/26 10:18:51;;;;;;;14.40;11.00;;;;;;;11.38;72.52;98671.25;220588;1274;25135;-72
2022/04/26 10:24:06;;;;;;;15.90;11.20;;;;;;;11.33;72.32;98666.19;221042;1273;25306;-75
2022/04/26 10:29:43;;;;;;;15.30;11.60;;;;;;;11.29;72.17;98673.35;221232;1273;23340;-73
2022/04/26 10:34:49;;;;;;;12.40;10.90;;;;;;;11.21;72.23;98671.67;221392;1273;22946;-72
2022/04/26 10:40:03;;;;;;;13.90;11.00;;;;;;;11.15;72.28;98678.89;221106;1274;22586;-72
2022/04/26 10:45:10;;;;;;;14.40;10.90;;;;;;;11.09;71.86;98679.80;221082;1273;25711;-72
2022/04/26 10:50:31;;;;;;;15.60;11.80;;;;;;;11.02;71.28;98678.84;221552;1273;23736;-71
2022/04/26 10:55:34;;;;;;;15.70;11.20;;;;;;;10.94;71.35;98672.64;221305;1273;22708;-71
2022/04/26 11:00:38;;;;;;;14.50;10.80;;;;;;;10.95;71.79;98673.48;220951;1274;24259;-71
2022/04/26 11:05:44;;;;;;;13.60;11.00;;;;;;;11.02;71.68;98672.52;220843;1274;24330;-71
2022/04/26 11:11:07;;;;;;;13.60;10.90;;;;;;;11.12;71.75;98677.44;220979;1274;24337;-72
2022/04/26 11:16:14;;;;;;;13.30;11.00;;;;;;;11.28;71.59;98678.23;220660;1274;25238;-73
2022/04/26 11:21:20;;;;;;;13.30;10.50;;;;;;;11.58;71.48;98680.39;221096;1274;22715;-73
2022/04/26 11:31:46;;;;;;;13.50;9.80;;;;;;;12.40;69.82;98682.84;220858;1274;24348;-73
2022/04/26 11:36:54;;;;;;;11.70;9.30;;;;;;;12.86;68.88;98680.89;221108;1274;22815;-73
2022/04/26 11:42:00;;;;;;;11.00;9.60;;;;;;;13.13;67.18;98681.65;220925;1274;22573;-71
2022/04/26 11:47:03;;;;;;;10.00;8.40;;;;;;;13.17;66.08;98684.34;221030;1274;22573;-73
2022/04/26 11:52:05;;;;;;;10.50;8.90;;;;;;;13.12;65.96;98682.77;220692;1273;25478;-73
2022/04/26 11:57:11;;;;;;;9.80;8.70;;;;;;;12.97;65.61;98687.37;220538;1274;24207;-71
2022/04/26 12:02:17;;;;;;;13.20;10.30;;;;;;;12.67;65.47;98688.92;220750;1274;26504;-72
2022/04/26 12:07:42;;;;;;;13.40;10.70;;;;;;;12.30;65.62;98689.03;220613;1273;333408;-72
2022/04/26 12:13:07;;;;;;;13.30;10.90;;;;;;;11.87;65.89;98686.93;220655;1273;25361;-72
2022/04/26 12:18:13;;;;;;;13.70;10.90;;;;;;;11.55;66.20;98686.67;220973;1273;22559;-74
2022/04/26 12:23:20;;;;;;;13.40;11.30;;;;;;;11.24;66.74;98690.75;221001;1273;24234;-74
2022/04/26 12:28:28;;;;;;;14.60;11.10;;;;;;;10.99;67.34;98691.21;220962;1273;23328;-73
2022/04/26 12:33:36;;;;;;;11.90;9.80;;;;;;;10.79;67.25;98691.64;220748;1275;22581;-74
2022/04/26 12:38:46;;;;;;;13.20;9.60;;;;;;;10.65;67.46;98693.88;220868;1273;25424;-72
2022/04/26 12:44:03;;;;;;;11.50;9.30;;;;;;;10.59;67.87;98689.62;220788;1273;24242;-72
2022/04/26 12:54:27;;;;;;;10.80;8.00;;;;;;;10.54;67.83;98684.09;220762;1274;23278;-72
2022/04/26 12:59:38;;;;;;;10.20;8.20;;;;;;;10.50;67.78;98681.78;220936;1274;22572;-72
2022/04/26 13:04:40;;;;;;;10.50;8.30;;;;;;;10.57;67.77;98676.58;221184;1273;22655;-72
2022/04/26 13:09:44;;;;;;;10.20;8.10;;;;;;;10.82;67.88;98674.34;220958;1274;23184;-72
2022/04/26 13:14:48;;;;;;;10.10;8.20;;;;;;;11.22;67.85;98673.63;220970;1274;25281;-73
2022/04/26 13:19:54;;;;;;;9.50;8.10;;;;;;;11.76;67.84;98673.78;221640;1274;22552;-72
2022/04/26 13:24:56;;;;;;;10.50;6.70;;;;;;;12.22;66.63;98669.80;221191;1273;25204;-72
2022/04/26 13:29:59;;;;;;;6.40;5.60;;;;;;;12.60;65.51;98673.02;220871;1274;22567;-73
2022/04/26 13:35:05;;;;;;;8.30;5.80;;;;;;;12.89;64.13;98677.83;220931;1273;22571;-71
2022/04/26 13:40:08;;;;;;;8.40;7.50;;;;;;;13.05;63.01;98682.17;220788;1273;22708;-72
2022/04/26 13:45:18;;;;;;;10.10;8.00;;;;;;;13.14;62.85;98680.77;220905;1274;22655;-71
2022/04/26 13:50:23;;;;;;;9.00;7.00;;;;;;;13.28;62.42;98683.59;221300;1273;22613;-72
2022/04/26 13:55:26;;;;;;;8.60;7.60;;;;;;;13.35;62.02;98680.30;221353;1273;23852;-72
2022/04/26 14:00:34;;;;;;;9.30;7.50;;;;;;;13.43;61.99;98678.17;221242;1274;22614;-73
2022/04/26 14:05:36;;;;;;;8.60;7.40;;;;;;;13.60;61.83;98680.03;221192;1274;22705;-75
2022/04/26 14:10:42;;;;;;;9.40;7.90;;;;;;;13.71;61.50;98683.96;220836;1273;22566;-73
2022/04/26 14:26:53;;;;;;;8.10;7.20;;;;;;;14.03;60.65;98678.86;220744;1273;25477;-73
2022/04/26 14:32:07;;;;;;;9.90;7.90;;;;;;;14.03;59.92;98678.73;220376;1273;23934;-72
2022/04/26 14:37:19;;;;;;;8.70;7.50;;;;;;;13.84;59.32;98677.98;220447;1273;22547;-74
2022/04/26 14:42:24;;;;;;;7.60;6.90;;;;;;;13.60;59.60;98683.70;220983;1273;25403;-74
2022/04/26 14:47:38;;;;;;;8.70;7.10;;;;;;;13.35;59.44;98685.20;220603;1273;22658;-74
2022/04/26 14:52:47;;;;;;;8.40;6.70;;;;;;;13.07;59.74;98682.75;220556;1274;22758;-73
2022/04/26 14:57:53;;;;;;;9.80;7.50;;;;;;;12.88;59.99;98682.30;220400;1274;25364;-74
2022/04/26 15:03:11;;;;;;;9.40;7.60;;;;;;;12.76;60.38;98679.09;220616;1274;26942;-73
2022/04/26 15:19:34;;;;;;;9.20;7.80;;;;;;;12.52;60.63;98683.08;220789;1274;24231;-74
2022/04/26 15:24:58;;;;;;;9.80;8.00;;;;;;;12.44;60.73;98684.88;220842;1274;22660;-74
2022/04/26 15:30:10;;;;;;;10.20;8.20;;;;;;;12.43;61.12;98683.59;220551;1274;24559;-73
2022/04/26 15:35:13;;;;;;;10.10;8.30;;;;;;;12.44;61.02;98683.52;220590;1274;22539;-73
2022/04/26 15:40:15;;;;;;;9.20;7.10;;;;;;;12.37;60.89;98686.52;220503;1274;22579;-73
2022/04/26 15:45:22;;;;;;;11.00;7.50;;;;;;;12.35;60.92;98689.04;220639;1274;26356;-73
2022/04/26 15:50:28;;;;;;;9.90;7.10;;;;;;;12.34;61.11;98680.95;220835;1273;22570;-73
2022/04/26 15:55:34;;;;;;;8.70;7.20;;;;;;;12.37;60.97;98683.31;220782;1274;22551;-72
2022/04/26 16:00:47;;;;;;;9.70;7.60;;;;;;;12.32;60.85;98679.23;220746;1273;27080;-73
2022/04/26 16:05:55;;;;;;;11.00;7.70;;;;;;;12.16;60.87;98678.70;220199;1275;22551;-73
2022/04/26 16:22:48;;;;;;;8.00;6.40;;;;;;;11.44;61.23;98686.11;220953;1273;22700;-73
2022/04/26 16:28:12;;;;;;;8.10;6.60;;;;;;;11.39;61.97;98682.08;220518;1274;22735;-74
2022/04/26 16:33:20;;;;;;;8.60;6.70;;;;;;;11.39;62.10;98684.80;220836;1274;24227;-72
2022/04/26 16:38:27;;;;;;;7.40;6.00;;;;;;;11.41;61.86;98691.27;220640;1274;22577;-72
2022/04/26 16:43:36;;;;;;;7.40;5.70;;;;;;;11.38;61.91;98698.61;220962;1274;24231;-74
2022/04/26 16:48:45;;;;;;;5.90;4.90;;;;;;;11.36;61.85;98702.84;221021;1274;25228;-73
2022/04/26 16:53:56;;;;;;;5.20;4.60;;;;;;;11.31;62.08;98700.73;220921;1274;22564;-72
2022/04/26 16:58:59;;;;;;;7.00;5.00;;;;;;;11.25;62.22;98703.73;221065;1274;25435;-72
2022/04/26 17:04:03;;;;;;;6.00;4.90;;;;;;;11.16;62.33;98705.52;220565;1274;22588;-74
2022/04/26 17:09:16;;;;;;;6.00;4.50;;;;;;;11.05;62.31;98707.75;220872;1274;25338;-73
2022/04/26 17:14:28;;;;;;;6.00;4.80;;;;;;;10.93;62.06;98714.36;220564;1276;24227;-72
2022/04/26 17:19:31;;;;;;;6.00;4.80;;;;;;;10.75;61.84;98714.85;220683;1274;22788;-73
2022/04/26 17:29:55;;;;;;;12.20;5.60;;;;;;;10.29;61.48;98719.26;220972;1274;24216;-72
2022/04/26 17:35:09;;;;;;;11.30;7.30;;;;;;;10.04;61.97;98723.20;220749;1274;25607;-72
2022/04/26 17:40:12;;;;;;;13.10;7.60;;;;;;;9.83;62.41;98730.98;220890;1274;24285;-72
2022/04/26 17:45:14;;;;;;;11.10;7.90;;;;;;;9.62;62.99;98742.00;220720;1275;26539;-73
2022/04/26 17:50:17;;;;;;;10.00;7.10;;;;;;;9.39;63.34;98744.06;220655;1274;22649;-74
2022/04/26 18:00:46;;;;;;;14.90;8.90;;;;;;;8.95;64.01;98747.94;220496;1274;24224;-74
2022/04/26 18:05:52;;;;;;;12.90;8.20;;;;;;;8.77;64.18;98753.25;220523;1273;22671;-73
2022/04/26 18:11:05;;;;;;;15.20;9.80;;;;;;;8.61;64.45;98754.73;220813;1273;22537;-73
2022/04/26 18:16:18;;;;;;;22.90;12.70;;;;;;;8.45;64.66;98758.53;220518;1274;22657;-74
2022/04/26 18:21:30;;;;;;;25.00;14.40;;;;;;;8.29;65.05;98765.47;220386;1274;22548;-74
2022/04/26 18:26:44;;;;;;;26.80;15.40;;;;;;;8.14;65.43;98771.29;220782;1274;22564;-74
2022/04/26 18:32:00;;;;;;;25.10;13.50;;;;;;;8.02;65.59;98780.34;220364;1274;22563;-73
2022/04/26 18:37:04;;;;;;;31.30;16.40;;;;;;;7.90;66.01;98784.86;220316;1276;22560;-74
2022/04/26 18:42:10;;;;;;;24.50;13.50;;;;;;;7.79;66.35;98793.45;220631;1274;22555;-75
2022/04/26 18:47:12;;;;;;;27.50;13.80;;;;;;;7.71;66.46;98802.74;220372;1274;22699;-75
2022/04/26 18:52:17;;;;;;;26.80;14.40;;;;;;;7.64;66.75;98809.80;220591;1273;22773;-74
2022/04/26 18:57:32;;;;;;;30.70;17.50;;;;;;;7.60;67.34;98818.02;220457;1274;22552;-74
2022/04/26 19:02:35;;;;;;;34.30;19.60;;;;;;;7.58;67.42;98817.26;220279;1274;22564;-73
2022/04/26 19:07:39;;;;;;;39.00;22.00;;;;;;;7.58;67.71;98823.45;220712;1274;26469;-73
2022/04/26 19:12:42;;;;;;;39.50;21.60;;;;;;;7.57;68.19;98827.02;220845;1274;25318;-73
2022/04/26 19:17:48;;;;;;;34.70;20.60;;;;;;;7.58;68.43;98835.92;220711;1274;25335;-73
2022/04/26 19:22:51;;;;;;;34.90;19.30;;;;;;;7.60;68.79;98839.83;220588;1274;22528;-73
2022/04/26 19:27:53;;;;;;;32.90;18.60;;;;;;;7.60;69.17;98840.52;220504;1276;25470;-73
2022/04/26 19:32:59;;;;;;;34.70;19.30;;;;;;;7.62;69.29;98839.50;220713;1274;22573;-74
2022/04/26 19:38:03;;;;;;;32.00;19.30;;;;;;;7.65;69.61;98839.83;220818;1274;23085;-73
2022/04/26 19:43:06;;;;;;;30.80;18.20;;;;;;;7.68;69.76;98839.55;220812;1274;22650;-73
2022/04/26 19:48:08;;;;;;;37.00;21.60;;;;;;;7.68;70.11;98840.88;220621;1274;24705;-73
2022/04/26 19:53:10;;;;;;;42.20;23.40;;;;;;;7.69;70.25;98845.42;220704;1274;22610;-73
2022/04/26 19:58:16;;;;;;;40.70;23.20;;;;;;;7.71;70.48;98840.30;220888;1273;22563;-72
2022/04/26 20:03:18;;;;;;;41.50;23.00;;;;;;;7.74;70.63;98837.83;220645;1274;22576;-73
2022/04/26 20:08:23;;;;;;;42.10;25.00;;;;;;;7.77;70.46;98841.30;220175;1275;22579;-73
2022/04/26 20:13:34;;;;;;;39.70;23.70;;;;;;;7.79;70.92;98839.01;220804;1274;24271;-74
2022/04/26 20:18:55;;;;;;;38.70;23.50;;;;;;;7.80;70.83;98836.45;220454;1274;22690;-73
2022/04/26 20:24:00;;;;;;;40.20;25.20;;;;;;;7.77;70.98;98828.41;220635;1275;22641;-73
2022/04/26 20:34:26;;;;;;;43.10;26.20;;;;;;;7.79;71.18;98835.02;220505;1275;22721;-72
2022/04/26 20:39:43;;;;;;;45.90;26.90;;;;;;;7.77;71.26;98832.55;220594;1274;22946;-73
2022/04/26 20:44:45;;;;;;;41.60;26.40;;;;;;;7.70;71.37;98834.16;220486;1274;22573;-73
2022/04/26 20:49:48;;;;;;;45.30;27.50;;;;;;;7.63;71.24;98835.77;220949;1275;22776;-74
2022/04/26 20:54:53;;;;;;;45.30;27.60;;;;;;;7.54;71.53;98842.80;220704;1274;24212;-73
2022/04/26 20:59:55;;;;;;;45.10;26.80;;;;;;;7.47;71.65;98840.72;220996;1275;22711;-73
2022/04/26 21:04:57;;;;;;;44.60;27.60;;;;;;;7.41;71.91;98843.38;220477;1274;22544;-73
2022/04/26 21:10:00;;;;;;;43.30;27.10;;;;;;;7.34;71.69;98847.05;220663;1274;22587;-73
2022/04/26 21:15:23;;;;;;;46.10;28.00;;;;;;;7.23;72.05;98850.50;220672;1277;22582;-73
2022/04/26 21:20:41;;;;;;;52.70;27.30;;;;;;;7.12;72.07;98856.40;220667;1274;22628;-73
2022/04/26 21:26:06;;;;;;;45.60;28.50;;;;;;;6.97;72.40;98866.27;220547;1274;24224;-74
2022/04/26 21:31:18;;;;;;;46.70;29.80;;;;;;;6.88;72.72;98867.46;220592;1275;25375;-72
2022/04/26 21:36:28;;;;;;;46.90;28.50;;;;;;;6.85;72.85;98871.61;220378;1277;22538;-73
2022/04/26 21:41:35;;;;;;;50.60;29.60;;;;;;;6.84;73.17;98874.05;220571;1275;25337;-72
2022/04/26 21:46:51;;;;;;;52.80;31.50;;;;;;;6.86;73.24;98880.92;220413;1275;24393;-73
2022/04/26 21:52:03;;;;;;;55.40;31.10;;;;;;;6.88;73.68;98883.06;220502;1274;22563;-72
2022/04/26 21:57:05;;;;;;;55.40;30.70;;;;;;;6.88;73.76;98887.02;220623;1274;22559;-71
2022/04/26 22:02:07;;;;;;;54.20;30.80;;;;;;;6.88;73.72;98886.90;220411;1275;22545;-76
2022/04/26 22:07:10;;;;;;;53.10;31.00;;;;;;;6.87;73.95;98883.07;220325;1275;22572;-73
2022/04/26 22:12:28;;;;;;;54.40;33.30;;;;;;;6.84;74.05;98879.64;220522;1274;22554;-73
2022/04/26 22:17:32;;;;;;;56.20;32.90;;;;;;;6.77;74.05;98884.41;220556;1274;22557;-73
2022/04/26 22:22:36;;;;;;;55.70;33.20;;;;;;;6.66;74.19;98892.51;220515;1274;22702;-72
2022/04/26 22:27:40;;;;;;;64.50;38.30;;;;;;;6.49;74.13;98892.00;220653;1274;25543;-72
2022/04/26 22:32:52;;;;;;;;;;;;;;;6.32;74.29;98890.42;220895;1274;22588;-73
2022/04/26 22:37:58;;;;;;;68.30;38.90;;;;;;;6.09;74.58;98894.12;220643;1274;22621;-73
2022/04/26 22:43:03;;;;;;;67.70;39.20;;;;;;;5.91;74.64;98899.33;220473;1275;22562;-73
2022/04/26 22:48:06;;;;;;;84.50;46.90;;;;;;;5.74;75.04;98897.96;220455;1274;25264;-73
2022/04/26 22:53:08;;;;;;;78.00;45.20;;;;;;;5.55;75.53;98903.11;220641;1275;25466;-72
2022/04/26 22:58:17;;;;;;;81.20;44.70;;;;;;;5.40;75.45;98902.11;220518;1275;22621;-72
2022/04/26 23:03:21;;;;;;;77.90;44.70;;;;;;;5.25;75.77;98900.27;220585;1274;24922;-73
2022/04/26 23:08:38;;;;;;;76.90;42.30;;;;;;;5.13;76.20;98901.63;220479;1275;25261;-73
2022/04/26 23:13:42;;;;;;;70.10;39.70;;;;;;;5.04;76.62;98900.99;220445;1275;22608;-73
2022/04/26 23:19:07;;;;;;;64.70;37.80;;;;;;;4.96;76.88;98895.92;220549;1274;23369;-72
2022/04/26 23:24:20;;;;;;;60.90;36.50;;;;;;;4.90;77.17;98899.89;220816;1274;22768;-72
2022/04/26 23:29:37;;;;;;;63.80;37.20;;;;;;;4.87;77.60;98903.30;220873;1274;22545;-72
2022/04/26 23:40:52;;;;;;;65.00;35.70;;;;;;;4.81;78.01;98905.78;220629;1274;22559;-72
2022/04/26 23:46:17;;;;;;;63.40;36.70;;;;;;;4.78;78.16;98902.21;220590;1274;22691;-73
2022/04/26 23:57:00;;;;;;;55.70;33.00;;;;;;;4.75;78.39;98906.61;220816;1274;22553;-73
